Time;durP1;ratioP1;P1;durP2;ratioP2;P2;SDS_P1;SDS_P2;PMS_P1;PMS_P2;Temp;Humidity;BMP_temperature;BMP_pressure;BME280_temperature;BME280_humidity;BME280_pressure;Samples;Min_cycle;Max_cycle;Signal;HPM_P1;HPM_P2
2021/11/27 00:01:07;;;;;;;;;;;23.80;54.60;;;;;;5094569;28;19908;-71
2021/11/27 00:03:33;;;;;;;;;;;23.80;54.60;;;;;;5094994;28;19916;-71
2021/11/27 00:05:58;;;;;;;;;;;23.80;54.60;;;;;;5094856;28;19950;-71
2021/11/27 00:08:24;;;;;;;;;;;23.70;54.50;;;;;;5094880;28;20345;-71
2021/11/27 00:10:51;;;;;;;;;;;23.80;54.60;;;;;;5094748;28;19915;-71
2021/11/27 00:13:17;;;;;;;;;;;23.70;54.50;;;;;;5094691;28;19915;-72
2021/11/27 00:15:43;;;;;;;;;;;23.70;54.50;;;;;;5094147;28;19920;-70
2021/11/27 00:18:09;;;;;;;;;;;23.70;55.10;;;;;;5094643;28;19909;-70
2021/11/27 00:20:37;;;;;;;;;;;23.70;54.50;;;;;;5094661;28;19915;-71
2021/11/27 00:23:03;;;;;;;;;;;23.70;54.50;;;;;;5094522;28;19909;-72
2021/11/27 00:25:28;;;;;;;;;;;23.70;54.50;;;;;;5094556;28;19923;-71
2021/11/27 00:27:54;;;;;;;;;;;23.70;54.50;;;;;;5094457;28;19915;-71
2021/11/27 00:30:21;;;;;;;;;;;23.70;54.50;;;;;;5094363;28;19954;-71
2021/11/27 00:32:47;;;;;;;;;;;23.70;54.40;;;;;;5094480;28;19909;-72
2021/11/27 00:35:12;;;;;;;;;;;23.70;54.50;;;;;;5094352;28;19915;-71
2021/11/27 00:37:38;;;;;;;;;;;23.70;54.50;;;;;;5076077;28;19916;-71
2021/11/27 00:40:05;;;;;;;;;;;23.70;54.50;;;;;;5093854;28;20394;-71
2021/11/27 00:42:30;;;;;;;;;;;23.60;54.40;;;;;;5094102;28;19962;-71
2021/11/27 00:44:56;;;;;;;;;;;23.60;54.40;;;;;;5093424;28;19908;-71
2021/11/27 00:47:21;;;;;;;;;;;23.60;54.40;;;;;;5093925;28;20376;-71
2021/11/27 00:49:50;;;;;;;;;;;23.60;54.40;;;;;;5075897;28;19982;-71
2021/11/27 00:52:16;;;;;;;;;;;23.60;54.40;;;;;;5093898;28;19916;-71
2021/11/27 00:54:41;;;;;;;;;;;23.60;54.40;;;;;;5094001;28;19908;-71
2021/11/27 00:57:07;;;;;;;;;;;23.60;54.40;;;;;;5093799;28;19920;-71
2021/11/27 00:59:32;;;;;;;;;;;23.60;55.00;;;;;;5093350;28;19922;-72
2021/11/27 01:01:58;;;;;;;;;;;23.60;54.40;;;;;;5093714;28;19955;-70
2021/11/27 01:04:23;;;;;;;;;;;23.60;54.40;;;;;;5093860;28;20268;-71
2021/11/27 01:06:49;;;;;;;;;;;23.60;54.40;;;;;;5093876;28;19962;-70
2021/11/27 01:09:14;;;;;;;;;;;23.60;54.30;;;;;;5093611;28;19907;-69
2021/11/27 01:11:44;;;;;;;;;;;23.50;54.30;;;;;;5093696;28;19915;-71
2021/11/27 01:14:11;;;;;;;;;;;23.50;54.30;;;;;;5093066;28;20066;-72
2021/11/27 01:16:38;;;;;;;;;;;23.50;54.30;;;;;;5093403;28;19920;-71
2021/11/27 01:19:04;;;;;;;;;;;23.50;54.30;;;;;;5093770;28;19961;-71
2021/11/27 01:21:32;;;;;;;;;;;23.50;54.30;;;;;;5093648;28;20034;-71
2021/11/27 01:23:59;;;;;;;;;;;23.50;54.30;;;;;;5093410;28;19908;-71
2021/11/27 01:26:25;;;;;;;;;;;23.50;54.20;;;;;;5093268;28;19908;-71
2021/11/27 01:28:50;;;;;;;;;;;23.50;54.30;;;;;;5092796;28;19908;-70
2021/11/27 01:31:16;;;;;;;;;;;23.50;54.20;;;;;;5093151;28;19908;-70
2021/11/27 01:33:42;;;;;;;;;;;23.40;54.20;;;;;;5075095;28;19908;-71
2021/11/27 01:36:07;;;;;;;;;;;23.50;54.20;;;;;;5093115;28;19916;-71
2021/11/27 01:38:34;;;;;;;;;;;23.40;54.20;;;;;;5093125;28;19951;-71
2021/11/27 01:41:01;;;;;;;;;;;23.40;54.20;;;;;;5093075;28;19919;-71
2021/11/27 01:43:26;;;;;;;;;;;23.40;54.20;;;;;;5092516;28;19915;-71
2021/11/27 01:45:52;;;;;;;;;;;23.40;54.20;;;;;;5092750;28;19920;-71
2021/11/27 01:48:19;;;;;;;;;;;23.40;54.20;;;;;;5092902;28;20364;-72
2021/11/27 01:50:50;;;;;;;;;;;23.40;54.20;;;;;;5092168;28;19962;-71
2021/11/27 01:53:17;;;;;;;;;;;23.40;54.20;;;;;;5092732;28;19969;-71
2021/11/27 01:55:43;;;;;;;;;;;23.40;54.20;;;;;;5092215;28;20341;-71
2021/11/27 01:58:09;;;;;;;;;;;23.40;54.10;;;;;;5092658;28;20387;-70
2021/11/27 02:00:37;;;;;;;;;;;23.30;54.10;;;;;;5092745;28;19915;-71
2021/11/27 02:03:03;;;;;;;;;;;23.30;54.10;;;;;;5092809;28;19908;-72
2021/11/27 02:05:28;;;;;;;;;;;23.30;54.10;;;;;;5092547;28;20003;-70
2021/11/27 02:07:54;;;;;;;;;;;23.30;54.10;;;;;;5074400;28;19915;-72
2021/11/27 02:10:20;;;;;;;;;;;23.30;54.10;;;;;;5091942;28;19908;-70
2021/11/27 02:12:47;;;;;;;;;;;23.30;54.10;;;;;;5092476;28;20113;-71
2021/11/27 02:15:13;;;;;;;;;;;23.30;54.10;;;;;;5092434;28;19915;-69
2021/11/27 02:17:39;;;;;;;;;;;23.30;54.10;;;;;;5092347;28;19916;-71
2021/11/27 02:20:05;;;;;;;;;;;23.30;54.10;;;;;;5092342;28;19908;-69
2021/11/27 02:22:33;;;;;;;;;;;23.30;54.10;;;;;;5092264;28;19911;-70
2021/11/27 02:24:59;;;;;;;;;;;23.30;54.00;;;;;;5091863;28;19956;-71
2021/11/27 02:27:25;;;;;;;;;;;23.30;54.10;;;;;;5092152;28;19952;-71
2021/11/27 02:29:50;;;;;;;;;;;23.20;54.00;;;;;;5092223;28;19986;-71
2021/11/27 02:32:16;;;;;;;;;;;23.20;54.00;;;;;;5092254;28;19915;-70
2021/11/27 02:34:42;;;;;;;;;;;23.20;54.00;;;;;;5092163;28;19916;-71
2021/11/27 02:37:07;;;;;;;;;;;23.20;54.00;;;;;;5092122;28;20253;-71
2021/11/27 02:39:34;;;;;;;;;;;23.20;54.00;;;;;;5091573;28;20289;-71
2021/11/27 02:42:00;;;;;;;;;;;23.20;54.00;;;;;;5092058;28;19912;-71
2021/11/27 02:44:28;;;;;;;;;;;23.20;54.00;;;;;;5092014;28;20400;-71
2021/11/27 02:46:54;;;;;;;;;;;23.10;54.00;;;;;;5091843;28;20376;-71
2021/11/27 02:49:19;;;;;;;;;;;23.10;54.00;;;;;;5092037;28;19915;-70
2021/11/27 02:51:45;;;;;;;;;;;23.10;54.00;;;;;;5091937;28;19953;-70
2021/11/27 02:54:11;;;;;;;;;;;23.10;54.00;;;;;;5091887;28;19918;-70
2021/11/27 02:56:37;;;;;;;;;;;23.10;54.00;;;;;;5091658;28;20010;-70
2021/11/27 02:59:10;;;;;;;;;;;23.10;54.00;;;;;;5091865;28;19916;-70
2021/11/27 03:01:35;;;;;;;;;;;23.10;54.00;;;;;;5091832;28;19920;-70
2021/11/27 03:04:01;;;;;;;;;;;23.10;54.00;;;;;;5096057;28;20011;-70
2021/11/27 03:06:26;;;;;;;;;;;23.00;53.90;;;;;;5095946;28;19908;-69
2021/11/27 03:08:52;;;;;;;;;;;23.00;53.90;;;;;;5095499;28;20403;-69
2021/11/27 03:11:19;;;;;;;;;;;23.00;53.90;;;;;;5095814;28;20028;-70
2021/11/27 03:13:45;;;;;;;;;;;23.00;53.90;;;;;;5096228;28;20074;-72
2021/11/27 03:16:10;;;;;;;;;;;23.00;53.90;;;;;;5095927;28;20036;-70
2021/11/27 03:18:36;;;;;;;;;;;23.00;53.90;;;;;;5095793;28;19908;-70
2021/11/27 03:21:01;;;;;;;;;;;23.00;53.90;;;;;;5095861;28;19908;-71
2021/11/27 03:23:27;;;;;;;;;;;22.90;53.90;;;;;;5095240;28;20356;-70
2021/11/27 03:25:53;;;;;;;;;;;23.00;53.90;;;;;;5095570;28;19912;-70
2021/11/27 03:28:18;;;;;;;;;;;22.90;53.90;;;;;;5077464;28;20325;-70
2021/11/27 03:30:44;;;;;;;;;;;22.90;53.80;;;;;;5095478;28;19919;-70
2021/11/27 03:33:09;;;;;;;;;;;22.90;53.80;;;;;;5095640;28;19915;-71
2021/11/27 03:35:35;;;;;;;;;;;22.90;53.80;;;;;;5095322;28;19915;-71
2021/11/27 03:38:00;;;;;;;;;;;22.90;53.80;;;;;;5094957;28;20438;-70
2021/11/27 03:40:26;;;;;;;;;;;22.90;53.80;;;;;;5095392;28;20257;-70
2021/11/27 03:42:52;;;;;;;;;;;22.90;53.80;;;;;;5095204;28;19908;-71
2021/11/27 03:45:19;;;;;;;;;;;22.90;53.80;;;;;;5095216;28;19912;-70
2021/11/27 03:48:04;;;;;;;;;;;22.90;53.80;;;;;;5095206;28;20333;-70
2021/11/27 03:50:31;;;;;;;;;;;22.90;53.80;;;;;;5095246;28;19908;-70
2021/11/27 03:52:56;;;;;;;;;;;22.90;53.80;;;;;;5094483;28;19912;-70
2021/11/27 03:55:22;;;;;;;;;;;22.80;53.70;;;;;;5095168;28;20388;-70
2021/11/27 03:57:47;;;;;;;;;;;22.80;53.70;;;;;;5094905;28;20015;-70
2021/11/27 04:00:13;;;;;;;;;;;22.80;53.70;;;;;;5076940;28;19916;-70
2021/11/27 04:02:38;;;;;;;;;;;22.80;53.70;;;;;;5095038;28;19999;-70
2021/11/27 04:05:04;;;;;;;;;;;22.80;53.70;;;;;;5094953;28;19954;-70
2021/11/27 04:07:30;;;;;;;;;;;22.80;53.70;;;;;;5094282;28;20388;-70
2021/11/27 04:09:55;;;;;;;;;;;22.80;53.70;;;;;;5094747;28;19915;-70
2021/11/27 04:12:20;;;;;;;;;;;22.80;53.70;;;;;;5094815;28;20326;-70
2021/11/27 04:14:46;;;;;;;;;;;22.80;53.70;;;;;;5094023;28;20322;-70
2021/11/27 04:17:11;;;;;;;;;;;22.70;53.60;;;;;;5094593;28;19923;-68
2021/11/27 04:19:37;;;;;;;;;;;22.70;53.60;;;;;;5094798;28;19908;-70
2021/11/27 04:22:03;;;;;;;;;;;22.70;53.60;;;;;;5093931;28;20449;-72
2021/11/27 04:24:28;;;;;;;;;;;22.70;53.60;;;;;;5094589;28;19908;-69
2021/11/27 04:26:54;;;;;;;;;;;22.70;53.60;;;;;;5094399;28;19912;-69
2021/11/27 04:29:19;;;;;;;;;;;22.70;53.60;;;;;;5094531;28;19936;-69
2021/11/27 04:31:45;;;;;;;;;;;22.70;53.60;;;;;;5094384;28;19999;-70
2021/11/27 04:34:11;;;;;;;;;;;22.70;53.60;;;;;;5094444;28;19993;-70
2021/11/27 04:36:36;;;;;;;;;;;22.60;53.50;;;;;;5093695;28;19916;-71
2021/11/27 04:39:02;;;;;;;;;;;22.60;53.50;;;;;;5094196;28;19914;-70
2021/11/27 04:41:28;;;;;;;;;;;22.60;53.50;;;;;;5094181;28;19908;-70
2021/11/27 04:43:53;;;;;;;;;;;22.60;53.50;;;;;;5094088;28;19947;-70
2021/11/27 04:46:18;;;;;;;;;;;22.60;53.60;;;;;;5093993;28;19920;-69
2021/11/27 04:48:44;;;;;;;;;;;22.60;53.50;;;;;;5076272;28;19954;-70
2021/11/27 04:51:09;;;;;;;;;;;22.50;53.50;;;;;;5093380;28;19915;-71
2021/11/27 04:53:35;;;;;;;;;;;22.60;53.50;;;;;;5093997;28;20447;-69
2021/11/27 04:56:00;;;;;;;;;;;22.60;53.50;;;;;;5093809;28;20372;-70
2021/11/27 04:58:26;;;;;;;;;;;22.60;53.50;;;;;;5093908;28;19961;-71
2021/11/27 05:00:52;;;;;;;;;;;22.50;53.50;;;;;;5093846;28;19909;-70
2021/11/27 05:03:18;;;;;;;;;;;22.50;53.50;;;;;;5093791;28;20002;-70
2021/11/27 05:05:43;;;;;;;;;;;22.50;53.50;;;;;;5093248;28;19970;-70
2021/11/27 05:08:09;;;;;;;;;;;22.50;53.40;;;;;;5093635;28;19916;-69
2021/11/27 05:10:34;;;;;;;;;;;22.50;53.40;;;;;;5093712;28;20139;-71
2021/11/27 05:13:00;;;;;;;;;;;22.50;53.40;;;;;;5093491;28;19908;-70
2021/11/27 05:15:25;;;;;;;;;;;22.50;53.40;;;;;;5093596;28;19943;-70
2021/11/27 05:17:51;;;;;;;;;;;22.50;53.40;;;;;;5093427;28;19916;-69
2021/11/27 05:20:16;;;;;;;;;;;22.40;53.40;;;;;;5092905;28;20267;-70
2021/11/27 05:22:42;;;;;;;;;;;22.40;53.40;;;;;;5093500;28;20343;-71
2021/11/27 05:25:08;;;;;;;;;;;22.40;53.30;;;;;;5092836;28;20407;-70
2021/11/27 05:27:34;;;;;;;;;;;22.40;53.30;;;;;;5074529;28;19919;-71
2021/11/27 05:30:00;;;;;;;;;;;22.40;53.40;;;;;;5093349;28;20263;-70
2021/11/27 05:32:38;;;;;;;;;;;22.40;53.30;;;;;;5093209;28;20390;-70
2021/11/27 05:35:04;;;;;;;;;;;22.40;53.30;;;;;;5092708;28;20265;-70
2021/11/27 05:37:29;;;;;;;;;;;22.40;53.30;;;;;;5093156;28;19916;-68
2021/11/27 05:39:56;;;;;;;;;;;22.40;53.30;;;;;;5093153;28;20344;-69
2021/11/27 05:42:21;;;;;;;;;;;22.40;53.30;;;;;;5093057;28;19912;-71
2021/11/27 05:44:47;;;;;;;;;;;22.40;53.30;;;;;;5093012;28;20432;-70
2021/11/27 05:47:13;;;;;;;;;;;22.40;53.30;;;;;;5092761;28;19927;-70
2021/11/27 05:49:39;;;;;;;;;;;22.40;53.30;;;;;;5092452;28;20283;-70
2021/11/27 05:52:05;;;;;;;;;;;22.30;53.20;;;;;;5093179;28;19915;-68
2021/11/27 05:54:30;;;;;;;;;;;22.30;53.20;;;;;;5092706;28;20401;-70
2021/11/27 05:56:55;;;;;;;;;;;22.30;53.20;;;;;;5092700;28;19916;-70
2021/11/27 05:59:21;;;;;;;;;;;22.40;53.30;;;;;;5092727;28;19908;-70
2021/11/27 06:01:46;;;;;;;;;;;22.30;53.20;;;;;;5092761;28;20318;-70
2021/11/27 06:04:12;;;;;;;;;;;22.30;53.20;;;;;;5091991;28;19915;-70
2021/11/27 06:06:37;;;;;;;;;;;22.30;53.20;;;;;;5092613;28;20502;-70
2021/11/27 06:09:03;;;;;;;;;;;22.30;53.20;;;;;;5092583;28;20002;-71
2021/11/27 06:11:28;;;;;;;;;;;22.30;53.20;;;;;;5092491;28;19908;-70
2021/11/27 06:13:54;;;;;;;;;;;22.30;53.20;;;;;;5092479;28;19912;-70
2021/11/27 06:16:20;;;;;;;;;;;22.30;53.20;;;;;;5092408;28;20431;-70
2021/11/27 06:18:45;;;;;;;;;;;22.20;53.10;;;;;;5092319;28;19962;-69
2021/11/27 06:21:10;;;;;;;;;;;22.20;53.10;;;;;;5092453;28;20364;-69
2021/11/27 06:23:36;;;;;;;;;;;22.20;53.10;;;;;;5092298;28;19960;-70
2021/11/27 06:26:02;;;;;;;;;;;22.20;53.10;;;;;;5092272;28;19915;-62
2021/11/27 06:28:28;;;;;;;;;;;22.20;53.10;;;;;;5074070;28;19912;-68
2021/11/27 06:30:53;;;;;;;;;;;22.20;53.10;;;;;;5092250;28;20105;-69
2021/11/27 06:33:19;;;;;;;;;;;22.20;53.10;;;;;;5091595;28;20163;-70
2021/11/27 06:35:44;;;;;;;;;;;22.20;53.10;;;;;;5092187;28;20272;-66
2021/11/27 06:38:10;;;;;;;;;;;22.20;53.00;;;;;;5091773;28;19955;-68
2021/11/27 06:40:36;;;;;;;;;;;22.20;53.00;;;;;;5092055;28;20022;-79
2021/11/27 06:43:01;;;;;;;;;;;22.20;53.00;;;;;;5092126;28;19916;-73
2021/11/27 06:45:30;;;;;;;;;;;22.10;52.90;;;;;;5091762;28;19924;-73
2021/11/27 06:47:58;;;;;;;;;;;22.10;52.90;;;;;;5072865;28;22312;-72
2021/11/27 06:50:24;;;;;;;;;;;22.10;52.80;;;;;;5092201;28;19930;-71
2021/11/27 06:52:49;;;;;;;;;;;22.10;52.80;;;;;;5092176;28;19908;-74
2021/11/27 06:55:15;;;;;;;;;;;22.10;52.80;;;;;;5091947;28;19930;-67
2021/11/27 06:57:40;;;;;;;;;;;22.10;52.80;;;;;;5091775;28;19916;-73
2021/11/27 07:00:06;;;;;;;;;;;22.10;52.80;;;;;;5091314;28;19942;-71
2021/11/27 07:02:32;;;;;;;;;;;22.20;52.80;;;;;;5091742;28;19953;-71
2021/11/27 07:04:57;;;;;;;;;;;22.20;52.80;;;;;;5091972;28;19911;-73
2021/11/27 07:07:23;;;;;;;;;;;22.20;52.70;;;;;;5091789;28;19915;-72
2021/11/27 07:09:48;;;;;;;;;;;22.20;52.80;;;;;;5091847;28;19931;-71
2021/11/27 07:12:14;;;;;;;;;;;22.20;52.70;;;;;;5091854;28;19912;-70
2021/11/27 07:14:39;;;;;;;;;;;22.30;52.80;;;;;;5091198;28;19908;-72
2021/11/27 07:17:05;;;;;;;;;;;22.30;52.80;;;;;;5091607;28;20448;-69
2021/11/27 07:19:33;;;;;;;;;;;22.40;52.80;;;;;;5091662;28;19915;-64
2021/11/27 07:21:59;;;;;;;;;;;22.40;52.80;;;;;;5091735;28;19915;-70
2021/11/27 07:24:24;;;;;;;;;;;22.40;52.80;;;;;;5091682;28;19912;-65
2021/11/27 07:26:50;;;;;;;;;;;22.40;52.80;;;;;;5091648;28;19951;-66
2021/11/27 07:29:15;;;;;;;;;;;22.50;52.80;;;;;;5091140;28;19943;-64
2021/11/27 07:31:41;;;;;;;;;;;22.50;52.80;;;;;;5091368;28;20364;-66
2021/11/27 07:34:06;;;;;;;;;;;22.50;52.80;;;;;;5091520;28;20430;-68
2021/11/27 07:36:32;;;;;;;;;;;22.50;52.80;;;;;;5091668;28;19965;-69
2021/11/27 07:38:57;;;;;;;;;;;22.50;52.80;;;;;;5091911;28;19908;-69
2021/11/27 07:41:23;;;;;;;;;;;22.60;52.90;;;;;;5073895;28;19910;-69
2021/11/27 07:43:48;;;;;;;;;;;22.60;52.80;;;;;;5091277;28;20002;-70
2021/11/27 07:46:15;;;;;;;;;;;22.60;52.80;;;;;;5091404;28;19924;-69
2021/11/27 07:48:40;;;;;;;;;;;22.60;52.80;;;;;;5091757;28;19912;-68
2021/11/27 07:51:06;;;;;;;;;;;22.60;52.80;;;;;;5095589;28;19908;-70
2021/11/27 07:53:32;;;;;;;;;;;22.70;52.80;;;;;;5095361;28;19908;-69
2021/11/27 07:55:57;;;;;;;;;;;22.70;52.80;;;;;;5095111;28;19914;-68
2021/11/27 07:58:23;;;;;;;;;;;22.70;52.80;;;;;;5094778;28;19914;-68
2021/11/27 08:00:48;;;;;;;;;;;22.70;52.80;;;;;;5095481;28;20283;-67
2021/11/27 08:03:14;;;;;;;;;;;22.70;52.80;;;;;;5095332;28;19908;-65
2021/11/27 08:05:39;;;;;;;;;;;22.80;52.80;;;;;;5095256;28;19914;-69
2021/11/27 08:08:05;;;;;;;;;;;22.70;52.80;;;;;;5095291;28;20284;-69
2021/11/27 08:10:30;;;;;;;;;;;22.80;52.80;;;;;;5095055;28;19909;-68
2021/11/27 08:12:56;;;;;;;;;;;22.70;52.80;;;;;;5094301;28;19908;-68
2021/11/27 08:15:21;;;;;;;;;;;22.80;52.80;;;;;;5094787;28;20367;-68
2021/11/27 08:17:47;;;;;;;;;;;22.80;52.80;;;;;;5094817;28;19963;-68
2021/11/27 08:20:12;;;;;;;;;;;22.80;52.80;;;;;;5094688;28;19908;-68
2021/11/27 08:22:38;;;;;;;;;;;22.80;52.80;;;;;;5094612;28;19908;-68
2021/11/27 08:25:04;;;;;;;;;;;22.80;52.80;;;;;;5094642;28;20261;-68
2021/11/27 08:27:29;;;;;;;;;;;22.80;52.80;;;;;;5094081;28;20391;-68
2021/11/27 08:29:55;;;;;;;;;;;22.80;52.70;;;;;;5094346;28;20410;-69
2021/11/27 08:32:21;;;;;;;;;;;22.80;52.70;;;;;;5094394;28;19908;-69
2021/11/27 08:34:47;;;;;;;;;;;22.80;52.70;;;;;;5094337;28;19916;-67
2021/11/27 08:37:12;;;;;;;;;;;22.80;52.70;;;;;;5069369;28;19917;-68
2021/11/27 08:39:38;;;;;;;;;;;22.80;52.70;;;;;;5076083;28;19915;-68
2021/11/27 08:42:04;;;;;;;;;;;22.90;52.70;;;;;;5071274;28;19917;-68
2021/11/27 08:44:29;;;;;;;;;;;22.90;52.70;;;;;;5071261;28;20150;-68
2021/11/27 08:46:55;;;;;;;;;;;22.90;52.70;;;;;;5071242;28;19949;-67
2021/11/27 08:49:20;;;;;;;;;;;22.90;52.70;;;;;;5071294;28;19913;-68
2021/11/27 08:51:45;;;;;;;;;;;22.90;52.70;;;;;;5072627;28;19916;-68
2021/11/27 08:54:12;;;;;;;;;;;22.90;52.60;;;;;;5091995;28;19958;-68
2021/11/27 08:56:37;;;;;;;;;;;22.90;52.70;;;;;;5091941;28;20380;-69
2021/11/27 08:59:03;;;;;;;;;;;22.90;52.60;;;;;;5093742;28;19908;-67
2021/11/27 09:01:29;;;;;;;;;;;22.90;52.60;;;;;;5093533;28;19908;-66
2021/11/27 09:03:55;;;;;;;;;;;22.90;52.60;;;;;;5093767;28;19948;-68
2021/11/27 09:06:20;;;;;;;;;;;22.90;52.60;;;;;;5093925;28;20016;-67
2021/11/27 09:08:46;;;;;;;;;;;22.90;52.60;;;;;;5093751;28;20007;-67
2021/11/27 09:11:14;;;;;;;;;;;23.00;52.60;;;;;;5093213;28;19998;-68
2021/11/27 09:13:40;;;;;;;;;;;23.00;52.60;;;;;;5093574;28;19914;-68
2021/11/27 09:16:06;;;;;;;;;;;23.00;52.60;;;;;;5075291;28;20268;-68
2021/11/27 09:18:32;;;;;;;;;;;23.00;52.60;;;;;;5093512;28;19908;-70
2021/11/27 09:20:58;;;;;;;;;;;23.00;52.60;;;;;;5075387;28;20447;-73
2021/11/27 09:23:24;;;;;;;;;;;23.00;52.50;;;;;;5093378;28;19992;-75
2021/11/27 09:25:49;;;;;;;;;;;23.00;52.50;;;;;;5092967;28;19915;-73
2021/11/27 09:28:15;;;;;;;;;;;23.00;52.50;;;;;;5093186;28;19908;-70
2021/11/27 09:30:40;;;;;;;;;;;23.10;52.50;;;;;;5093273;28;19959;-67
2021/11/27 09:33:06;;;;;;;;;;;23.10;52.60;;;;;;5093369;28;19940;-71
2021/11/27 09:35:31;;;;;;;;;;;23.10;52.70;;;;;;5093374;28;20431;-66
2021/11/27 09:37:57;;;;;;;;;;;23.20;52.70;;;;;;5093079;28;20379;-66
2021/11/27 09:40:23;;;;;;;;;;;23.20;52.80;;;;;;5092705;28;19908;-66
2021/11/27 09:42:49;;;;;;;;;;;23.20;52.80;;;;;;5093037;28;19934;-63
2021/11/27 09:45:15;;;;;;;;;;;23.30;52.90;;;;;;5092802;28;20023;-64
2021/11/27 09:47:43;;;;;;;;;;;23.40;53.00;;;;;;5093285;28;20380;-68
2021/11/27 09:50:09;;;;;;;;;;;23.40;53.00;;;;;;5092987;28;19909;-72
2021/11/27 09:52:35;;;;;;;;;;;23.50;53.00;;;;;;5092970;28;19908;-63
2021/11/27 09:55:02;;;;;;;;;;;23.50;53.00;;;;;;5092332;28;19912;-70
2021/11/27 09:57:28;;;;;;;;;;;23.50;53.00;;;;;;5092741;28;20033;-77
2021/11/27 09:59:53;;;;;;;;;;;23.60;53.10;;;;;;5092937;28;19909;-74
2021/11/27 10:02:21;;;;;;;;;;;23.60;53.20;;;;;;5092756;28;20379;-75
2021/11/27 10:04:54;;;;;;;;;;;23.60;53.20;;;;;;5092878;28;19995;-72
2021/11/27 10:07:21;;;;;;;;;;;23.60;53.20;;;;;;5093104;28;19908;-70
2021/11/27 10:09:48;;;;;;;;;;;23.60;53.20;;;;;;5073920;28;20050;-67
2021/11/27 10:12:14;;;;;;;;;;;23.60;53.20;;;;;;5091951;28;19912;-69
2021/11/27 10:14:40;;;;;;;;;;;23.60;53.20;;;;;;5092511;28;20019;-68
2021/11/27 10:17:07;;;;;;;;;;;23.70;53.30;;;;;;5092257;28;20372;-69
2021/11/27 10:19:39;;;;;;;;;;;23.70;53.20;;;;;;5074269;28;20284;-68
2021/11/27 10:22:04;;;;;;;;;;;23.70;53.20;;;;;;5092362;28;19919;-68
2021/11/27 10:24:31;;;;;;;;;;;23.80;53.20;;;;;;5091718;28;19908;-68
2021/11/27 10:26:57;;;;;;;;;;;23.80;53.10;;;;;;5092368;28;19959;-68
2021/11/27 10:29:25;;;;;;;;;;;23.80;53.10;;;;;;5092088;28;19908;-70
2021/11/27 10:32:04;;;;;;;;;;;23.80;53.10;;;;;;5092245;28;19908;-69
2021/11/27 10:34:31;;;;;;;;;;;23.80;53.10;;;;;;5092260;28;19908;-68
2021/11/27 10:36:56;;;;;;;;;;;23.80;53.00;;;;;;5092148;28;20383;-69
2021/11/27 10:39:22;;;;;;;;;;;23.80;53.00;;;;;;5091820;28;19908;-65
2021/11/27 10:41:54;;;;;;;;;;;23.80;53.00;;;;;;5092033;28;19908;-69
2021/11/27 10:44:24;;;;;;;;;;;23.80;53.00;;;;;;5092071;28;20280;-67
2021/11/27 10:46:49;;;;;;;;;;;23.80;52.90;;;;;;5091774;28;19973;-67
2021/11/27 10:49:23;;;;;;;;;;;23.90;53.00;;;;;;5091968;28;20007;-64
2021/11/27 10:52:02;;;;;;;;;;;23.90;53.00;;;;;;5091901;28;20360;-67
2021/11/27 10:54:40;;;;;;;;;;;23.90;53.00;;;;;;5091510;28;19914;-71
2021/11/27 10:57:06;;;;;;;;;;;23.90;53.00;;;;;;5091830;28;19931;-70
2021/11/27 10:59:38;;;;;;;;;;;23.90;53.00;;;;;;5091858;28;19912;-70
2021/11/27 11:02:05;;;;;;;;;;;23.90;53.10;;;;;;5091916;28;19919;-75
2021/11/27 11:04:31;;;;;;;;;;;23.80;53.10;;;;;;5091813;28;19916;-73
2021/11/27 11:07:12;;;;;;;;;;;23.80;53.10;;;;;;5073415;28;19908;-76
2021/11/27 11:09:57;;;;;;;;;;;23.90;53.10;;;;;;5091845;28;19908;-69
2021/11/27 11:12:31;;;;;;;;;;;23.80;53.10;;;;;;5091533;28;20257;-73
2021/11/27 11:15:14;;;;;;;;;;;23.90;53.10;;;;;;5091920;28;19940;-74
2021/11/27 11:17:39;;;;;;;;;;;23.90;53.10;;;;;;5092235;28;19959;-87
2021/11/27 11:20:14;;;;;;;;;;;24.00;53.10;;;;;;5074026;28;19915;-77
2021/11/27 11:22:39;;;;;;;;;;;24.00;53.10;;;;;;5091231;28;20007;-75
2021/11/27 11:25:06;;;;;;;;;;;24.00;53.10;;;;;;5095839;28;19947;-73
2021/11/27 11:27:35;;;;;;;;;;;24.00;53.10;;;;;;5095800;28;19991;-75
2021/11/27 11:30:02;;;;;;;;;;;24.00;53.10;;;;;;5096004;28;19912;-73
2021/11/27 11:32:28;;;;;;;;;;;24.00;53.20;;;;;;5096094;28;19916;-72
2021/11/27 20:15:32;;;;;;;;;;;21.80;51.90;;;;;;5090005;28;20396;-71
2021/11/27 20:17:58;;;;;;;;;;;21.80;53.20;;;;;;5089426;28;19916;-76
2021/11/27 20:20:23;;;;;;;;;;;21.90;54.10;;;;;;5089737;28;19912;-71
2021/11/27 20:22:50;;;;;;;;;;;22.10;54.70;;;;;;5089654;28;19916;-72
2021/11/27 20:25:15;;;;;;;;;;;22.20;54.90;;;;;;5089848;28;19908;-72
2021/11/27 20:27:41;;;;;;;;;;;22.40;55.00;;;;;;5089682;28;19908;-74
2021/11/27 20:30:07;;;;;;;;;;;22.50;55.00;;;;;;5089462;28;19962;-71
2021/11/27 20:32:33;;;;;;;;;;;22.70;55.10;;;;;;5089039;28;19912;-72
2021/11/27 20:34:58;;;;;;;;;;;22.80;55.10;;;;;;5089283;28;19924;-72
2021/11/27 20:37:24;;;;;;;;;;;22.90;55.10;;;;;;5089346;28;20441;-72
2021/11/27 20:39:49;;;;;;;;;;;23.00;55.00;;;;;;5089451;28;19934;-73
2021/11/27 20:42:15;;;;;;;;;;;23.10;55.00;;;;;;5089186;28;19915;-59
2021/11/27 20:44:40;;;;;;;;;;;23.10;54.90;;;;;;5089142;28;19979;-71
2021/11/27 20:47:06;;;;;;;;;;;23.20;54.90;;;;;;5088716;28;19951;-72
2021/11/27 20:49:31;;;;;;;;;;;23.30;54.90;;;;;;5089145;28;19913;-72
2021/11/27 20:51:57;;;;;;;;;;;23.40;54.90;;;;;;5089101;28;19932;-73
2021/11/27 20:54:23;;;;;;;;;;;23.40;54.80;;;;;;5088905;28;20280;-71
2021/11/27 20:56:49;;;;;;;;;;;23.50;54.80;;;;;;5089048;28;19908;-72
2021/11/27 20:59:15;;;;;;;;;;;23.50;54.60;;;;;;5088968;28;20002;-72
2021/11/27 21:01:41;;;;;;;;;;;23.60;54.70;;;;;;5088493;28;19909;-72
2021/11/27 21:04:07;;;;;;;;;;;23.60;55.20;;;;;;5088946;28;19908;-72
2021/11/27 21:06:33;;;;;;;;;;;23.70;54.60;;;;;;5088763;28;19940;-72
2021/11/27 21:08:58;;;;;;;;;;;23.70;54.50;;;;;;5088737;28;19969;-70
2021/11/27 21:11:27;;;;;;;;;;;23.80;54.50;;;;;;5088865;28;20372;-72
2021/11/27 21:13:52;;;;;;;;;;;23.80;54.40;;;;;;5095232;28;20318;-80
2021/11/27 21:16:18;;;;;;;;;;;23.80;54.40;;;;;;5109051;28;20003;-76
2021/11/27 21:18:46;;;;;;;;;;;23.90;54.40;;;;;;5108718;28;19923;-80
2021/11/27 21:21:11;;;;;;;;;;;23.90;54.30;;;;;;5094872;28;19966;-80
2021/11/27 21:23:37;;;;;;;;;;;23.90;54.20;;;;;;5086619;28;19912;-79
2021/11/27 21:26:03;;;;;;;;;;;23.90;54.20;;;;;;5077720;28;20083;-79
2021/11/27 21:28:28;;;;;;;;;;;24.00;54.20;;;;;;5072755;28;19974;-79
2021/11/27 21:30:53;;;;;;;;;;;24.00;54.10;;;;;;5072447;28;20011;-78
2021/11/27 21:33:22;;;;;;;;;;;24.00;54.10;;;;;;5072640;28;20365;-79
2021/11/27 21:35:47;;;;;;;;;;;24.00;54.10;;;;;;5073092;28;19912;-78
2021/11/27 21:38:13;;;;;;;;;;;24.00;54.00;;;;;;5073109;28;19916;-78
2021/11/27 21:40:39;;;;;;;;;;;24.00;54.00;;;;;;5072850;28;20014;-78
2021/11/27 21:43:04;;;;;;;;;;;24.10;54.00;;;;;;5072775;28;19950;-78
2021/11/27 21:45:30;;;;;;;;;;;24.10;53.90;;;;;;5072158;28;20471;-80
2021/11/27 21:47:55;;;;;;;;;;;24.10;53.90;;;;;;5072565;28;19954;-79
2021/11/27 21:50:21;;;;;;;;;;;24.10;53.90;;;;;;5072671;28;20050;-80
2021/11/27 21:52:47;;;;;;;;;;;24.10;53.80;;;;;;5072962;28;19913;-79
2021/11/27 21:55:12;;;;;;;;;;;24.20;53.80;;;;;;5072554;28;19930;-78
2021/11/27 21:57:38;;;;;;;;;;;24.20;53.80;;;;;;5072355;28;20003;-79
2021/11/27 22:00:04;;;;;;;;;;;24.20;53.70;;;;;;5053874;28;19965;-79
2021/11/27 22:02:30;;;;;;;;;;;24.20;54.30;;;;;;5072153;28;19913;-78
2021/11/27 22:04:55;;;;;;;;;;;24.20;53.60;;;;;;5072154;28;19920;-78
2021/11/27 22:07:21;;;;;;;;;;;24.20;53.60;;;;;;5072114;28;19919;-80
2021/11/27 22:09:47;;;;;;;;;;;24.20;53.60;;;;;;5072135;28;19986;-79
2021/11/27 22:12:13;;;;;;;;;;;24.20;53.50;;;;;;5072420;28;20008;-78
2021/11/27 22:14:39;;;;;;;;;;;24.20;53.50;;;;;;5071623;28;19924;-80
2021/11/27 22:17:05;;;;;;;;;;;24.20;53.40;;;;;;5072093;28;20494;-78
2021/11/27 22:19:31;;;;;;;;;;;24.20;53.40;;;;;;5072400;28;20019;-77
2021/11/27 22:21:57;;;;;;;;;;;24.20;53.30;;;;;;5087885;28;19916;-79
2021/11/27 22:24:22;;;;;;;;;;;24.30;53.40;;;;;;5072428;28;19920;-79
2021/11/27 22:26:48;;;;;;;;;;;24.30;53.30;;;;;;5084912;28;20344;-79
2021/11/27 22:29:14;;;;;;;;;;;24.30;53.30;;;;;;5089574;28;19908;-78
2021/11/27 22:31:42;;;;;;;;;;;24.30;53.30;;;;;;5093637;28;20306;-78
2021/11/27 22:34:07;;;;;;;;;;;24.20;53.20;;;;;;5094352;28;20337;-79
2021/11/27 22:36:33;;;;;;;;;;;24.30;53.20;;;;;;5093273;28;19959;-80
2021/11/27 22:38:59;;;;;;;;;;;24.30;53.20;;;;;;5093839;28;19914;-79
2021/11/27 22:41:25;;;;;;;;;;;24.30;53.10;;;;;;5094430;28;20334;-79
2021/11/27 22:43:50;;;;;;;;;;;24.30;53.10;;;;;;5093456;28;19916;-79
2021/11/27 22:46:16;;;;;;;;;;;24.30;53.10;;;;;;5093951;28;20367;-79
2021/11/27 22:48:42;;;;;;;;;;;24.30;53.00;;;;;;5093808;28;19950;-79
2021/11/27 22:51:07;;;;;;;;;;;24.30;53.00;;;;;;5093844;28;19948;-79